sensor_id;sensor_type;location;lat;lon;timestamp;P1;durP1;ratioP1;P2;durP2;ratioP2
60169;SDS011;46042;49.444;6.862;2022-11-15T00:00:52;17.45;;;7.60;;
60169;SDS011;46042;49.444;6.862;2022-11-15T00:03:23;18.63;;;7.78;;
60169;SDS011;46042;49.444;6.862;2022-11-15T00:05:51;14.63;;;8.18;;
60169;SDS011;46042;49.444;6.862;2022-11-15T00:08:18;16.58;;;7.75;;
60169;SDS011;46042;49.444;6.862;2022-11-15T00:10:55;13.23;;;6.70;;
60169;SDS011;46042;49.444;6.862;2022-11-15T00:13:23;16.55;;;7.20;;
60169;SDS011;46042;49.444;6.862;2022-11-15T00:15:49;10.85;;;7.45;;
60169;SDS011;46042;49.444;6.862;2022-11-15T00:18:17;20.48;;;7.40;;
60169;SDS011;46042;49.444;6.862;2022-11-15T00:20:44;15.02;;;7.00;;
60169;SDS011;46042;49.444;6.862;2022-11-15T00:23:11;16.30;;;7.53;;
60169;SDS011;46042;49.444;6.862;2022-11-15T00:25:37;16.40;;;7.13;;
60169;SDS011;46042;49.444;6.862;2022-11-15T00:28:04;13.75;;;8.02;;
60169;SDS011;46042;49.444;6.862;2022-11-15T00:30:31;11.02;;;6.90;;
60169;SDS011;46042;49.444;6.862;2022-11-15T00:33:02;18.38;;;8.05;;
60169;SDS011;46042;49.444;6.862;2022-11-15T00:35:33;24.75;;;8.18;;
60169;SDS011;46042;49.444;6.862;2022-11-15T00:38:00;15.55;;;8.35;;
60169;SDS011;46042;49.444;6.862;2022-11-15T00:40:28;13.45;;;7.25;;
60169;SDS011;46042;49.444;6.862;2022-11-15T00:42:55;16.25;;;7.85;;
60169;SDS011;46042;49.444;6.862;2022-11-15T00:45:21;13.20;;;8.05;;
60169;SDS011;46042;49.444;6.862;2022-11-15T00:47:48;16.15;;;7.68;;
60169;SDS011;46042;49.444;6.862;2022-11-15T00:50:15;16.33;;;7.40;;
60169;SDS011;46042;49.444;6.862;2022-11-15T00:52:42;11.65;;;6.35;;
60169;SDS011;46042;49.444;6.862;2022-11-15T00:55:13;12.98;;;7.25;;
60169;SDS011;46042;49.444;6.862;2022-11-15T00:57:41;15.60;;;6.93;;
60169;SDS011;46042;49.444;6.862;2022-11-15T01:00:08;12.93;;;7.05;;
60169;SDS011;46042;49.444;6.862;2022-11-15T01:02:35;11.85;;;6.72;;
60169;SDS011;46042;49.444;6.862;2022-11-15T01:05:02;18.20;;;6.65;;
60169;SDS011;46042;49.444;6.862;2022-11-15T01:07:28;13.63;;;6.78;;
60169;SDS011;46042;49.444;6.862;2022-11-15T01:09:55;15.32;;;6.85;;
60169;SDS011;46042;49.444;6.862;2022-11-15T01:12:22;9.55;;;6.63;;
60169;SDS011;46042;49.444;6.862;2022-11-15T01:14:49;21.27;;;6.80;;
60169;SDS011;46042;49.444;6.862;2022-11-15T01:17:16;11.05;;;6.95;;
60169;SDS011;46042;49.444;6.862;2022-11-15T01:19:42;9.75;;;5.82;;
60169;SDS011;46042;49.444;6.862;2022-11-15T01:22:09;16.63;;;6.85;;
60169;SDS011;46042;49.444;6.862;2022-11-15T01:24:35;13.88;;;6.28;;
60169;SDS011;46042;49.444;6.862;2022-11-15T01:27:02;17.73;;;6.70;;
60169;SDS011;46042;49.444;6.862;2022-11-15T01:29:29;11.85;;;5.93;;
60169;SDS011;46042;49.444;6.862;2022-11-15T01:31:55;11.32;;;6.75;;
60169;SDS011;46042;49.444;6.862;2022-11-15T01:34:22;8.45;;;5.55;;
60169;SDS011;46042;49.444;6.862;2022-11-15T01:36:48;17.05;;;7.00;;
60169;SDS011;46042;49.444;6.862;2022-11-15T01:39:15;10.68;;;6.47;;
60169;SDS011;46042;49.444;6.862;2022-11-15T01:41:43;12.40;;;6.63;;
60169;SDS011;46042;49.444;6.862;2022-11-15T01:50:06;9.07;;;5.95;;
60169;SDS011;46042;49.444;6.862;2022-11-15T01:52:36;13.35;;;6.30;;
60169;SDS011;46042;49.444;6.862;2022-11-15T01:55:16;16.67;;;7.13;;
60169;SDS011;46042;49.444;6.862;2022-11-15T01:57:50;9.48;;;6.32;;
60169;SDS011;46042;49.444;6.862;2022-11-15T02:00:19;19.95;;;6.82;;
60169;SDS011;46042;49.444;6.862;2022-11-15T02:02:46;11.32;;;6.60;;
60169;SDS011;46042;49.444;6.862;2022-11-15T02:05:12;15.95;;;7.32;;
60169;SDS011;46042;49.444;6.862;2022-11-15T02:07:39;19.60;;;6.63;;
60169;SDS011;46042;49.444;6.862;2022-11-15T02:10:08;18.88;;;7.07;;
60169;SDS011;46042;49.444;6.862;2022-11-15T02:12:45;14.23;;;6.50;;
60169;SDS011;46042;49.444;6.862;2022-11-15T02:15:13;12.05;;;6.40;;
60169;SDS011;46042;49.444;6.862;2022-11-15T02:32:07;12.07;;;5.53;;
60169;SDS011;46042;49.444;6.862;2022-11-15T02:37:16;8.63;;;5.68;;
60169;SDS011;46042;49.444;6.862;2022-11-15T02:42:43;9.40;;;6.57;;
60169;SDS011;46042;49.444;6.862;2022-11-15T02:45:58;9.75;;;6.40;;
60169;SDS011;46042;49.444;6.862;2022-11-15T02:48:37;10.43;;;6.00;;
60169;SDS011;46042;49.444;6.862;2022-11-15T02:51:05;9.88;;;6.32;;
60169;SDS011;46042;49.444;6.862;2022-11-15T02:53:32;14.73;;;7.13;;
60169;SDS011;46042;49.444;6.862;2022-11-15T02:55:59;13.50;;;6.93;;
60169;SDS011;46042;49.444;6.862;2022-11-15T03:01:00;12.77;;;7.00;;
60169;SDS011;46042;49.444;6.862;2022-11-15T03:04:02;10.05;;;6.70;;
60169;SDS011;46042;49.444;6.862;2022-11-15T03:12:12;13.07;;;6.57;;
60169;SDS011;46042;49.444;6.862;2022-11-15T03:15:33;11.20;;;5.97;;
60169;SDS011;46042;49.444;6.862;2022-11-15T03:18:00;14.05;;;7.43;;
60169;SDS011;46042;49.444;6.862;2022-11-15T03:20:30;10.30;;;7.10;;
60169;SDS011;46042;49.444;6.862;2022-11-15T03:23:08;14.02;;;6.70;;
60169;SDS011;46042;49.444;6.862;2022-11-15T03:25:39;15.07;;;6.72;;
60169;SDS011;46042;49.444;6.862;2022-11-15T03:28:11;13.27;;;7.40;;
60169;SDS011;46042;49.444;6.862;2022-11-15T03:30:43;11.73;;;7.32;;
60169;SDS011;46042;49.444;6.862;2022-11-15T03:33:12;11.63;;;6.95;;
60169;SDS011;46042;49.444;6.862;2022-11-15T03:35:39;14.27;;;6.95;;
60169;SDS011;46042;49.444;6.862;2022-11-15T03:38:43;16.65;;;7.30;;
60169;SDS011;46042;49.444;6.862;2022-11-15T03:41:04;12.63;;;7.13;;
60169;SDS011;46042;49.444;6.862;2022-11-15T03:46:40;12.20;;;7.97;;
60169;SDS011;46042;49.444;6.862;2022-11-15T03:49:33;17.35;;;7.13;;
60169;SDS011;46042;49.444;6.862;2022-11-15T03:52:03;17.23;;;7.40;;
60169;SDS011;46042;49.444;6.862;2022-11-15T03:54:30;21.38;;;8.93;;
60169;SDS011;46042;49.444;6.862;2022-11-15T03:56:57;17.33;;;8.63;;
60169;SDS011;46042;49.444;6.862;2022-11-15T03:59:24;26.20;;;8.27;;
60169;SDS011;46042;49.444;6.862;2022-11-15T04:01:50;14.32;;;8.02;;
60169;SDS011;46042;49.444;6.862;2022-11-15T04:04:17;19.70;;;9.07;;
60169;SDS011;46042;49.444;6.862;2022-11-15T04:06:43;13.10;;;7.65;;
60169;SDS011;46042;49.444;6.862;2022-11-15T04:09:10;17.27;;;7.57;;
60169;SDS011;46042;49.444;6.862;2022-11-15T04:11:37;14.40;;;8.15;;
60169;SDS011;46042;49.444;6.862;2022-11-15T04:14:03;19.38;;;7.55;;
60169;SDS011;46042;49.444;6.862;2022-11-15T04:16:30;11.52;;;6.60;;
60169;SDS011;46042;49.444;6.862;2022-11-15T04:18:56;23.17;;;7.75;;
60169;SDS011;46042;49.444;6.862;2022-11-15T04:21:41;11.68;;;7.00;;
60169;SDS011;46042;49.444;6.862;2022-11-15T04:24:27;14.43;;;7.05;;
60169;SDS011;46042;49.444;6.862;2022-11-15T04:26:53;11.43;;;7.60;;
60169;SDS011;46042;49.444;6.862;2022-11-15T04:29:20;18.35;;;7.85;;
60169;SDS011;46042;49.444;6.862;2022-11-15T04:32:02;12.88;;;6.97;;
60169;SDS011;46042;49.444;6.862;2022-11-15T04:34:30;13.40;;;5.85;;
60169;SDS011;46042;49.444;6.862;2022-11-15T04:36:58;16.58;;;7.05;;
60169;SDS011;46042;49.444;6.862;2022-11-15T04:39:40;10.85;;;7.45;;
60169;SDS011;46042;49.444;6.862;2022-11-15T04:42:07;13.27;;;6.55;;
60169;SDS011;46042;49.444;6.862;2022-11-15T04:44:34;16.52;;;8.25;;
60169;SDS011;46042;49.444;6.862;2022-11-15T04:47:01;12.02;;;6.25;;
60169;SDS011;46042;49.444;6.862;2022-11-15T04:49:28;20.35;;;7.05;;
60169;SDS011;46042;49.444;6.862;2022-11-15T04:51:55;14.60;;;6.95;;
60169;SDS011;46042;49.444;6.862;2022-11-15T04:54:21;9.65;;;6.25;;
60169;SDS011;46042;49.444;6.862;2022-11-15T04:56:48;16.98;;;7.45;;
60169;SDS011;46042;49.444;6.862;2022-11-15T04:59:14;14.48;;;6.35;;
60169;SDS011;46042;49.444;6.862;2022-11-15T05:01:41;11.88;;;6.95;;
60169;SDS011;46042;49.444;6.862;2022-11-15T05:04:10;17.77;;;7.38;;
60169;SDS011;46042;49.444;6.862;2022-11-15T05:06:47;14.27;;;7.93;;
60169;SDS011;46042;49.444;6.862;2022-11-15T05:09:16;14.05;;;7.90;;
60169;SDS011;46042;49.444;6.862;2022-11-15T05:11:43;10.85;;;6.95;;
60169;SDS011;46042;49.444;6.862;2022-11-15T05:14:11;10.60;;;6.95;;
60169;SDS011;46042;49.444;6.862;2022-11-15T05:16:37;16.70;;;7.43;;
60169;SDS011;46042;49.444;6.862;2022-11-15T05:19:04;12.48;;;7.68;;
60169;SDS011;46042;49.444;6.862;2022-11-15T05:21:32;11.77;;;7.53;;
60169;SDS011;46042;49.444;6.862;2022-11-15T05:23:59;12.98;;;8.05;;
60169;SDS011;46042;49.444;6.862;2022-11-15T05:26:26;12.68;;;7.72;;
60169;SDS011;46042;49.444;6.862;2022-11-15T05:28:54;14.15;;;7.88;;
60169;SDS011;46042;49.444;6.862;2022-11-15T05:31:23;16.15;;;7.97;;
60169;SDS011;46042;49.444;6.862;2022-11-15T05:33:51;12.52;;;7.18;;
60169;SDS011;46042;49.444;6.862;2022-11-15T05:36:25;16.73;;;7.13;;
60169;SDS011;46042;49.444;6.862;2022-11-15T05:39:06;14.45;;;7.50;;
60169;SDS011;46042;49.444;6.862;2022-11-15T05:41:48;16.77;;;6.95;;
60169;SDS011;46042;49.444;6.862;2022-11-15T05:44:19;10.27;;;6.32;;
60169;SDS011;46042;49.444;6.862;2022-11-15T05:46:49;12.27;;;7.32;;
60169;SDS011;46042;49.444;6.862;2022-11-15T05:49:20;11.98;;;6.95;;
60169;SDS011;46042;49.444;6.862;2022-11-15T05:51:50;13.23;;;7.20;;
60169;SDS011;46042;49.444;6.862;2022-11-15T05:54:19;11.55;;;6.63;;
60169;SDS011;46042;49.444;6.862;2022-11-15T05:56:47;10.32;;;6.57;;
60169;SDS011;46042;49.444;6.862;2022-11-15T05:59:16;12.05;;;7.00;;
60169;SDS011;46042;49.444;6.862;2022-11-15T06:01:43;14.68;;;6.30;;
60169;SDS011;46042;49.444;6.862;2022-11-15T06:04:10;14.23;;;6.10;;
60169;SDS011;46042;49.444;6.862;2022-11-15T06:06:37;12.93;;;7.15;;
60169;SDS011;46042;49.444;6.862;2022-11-15T06:09:03;14.40;;;7.13;;
60169;SDS011;46042;49.444;6.862;2022-11-15T06:11:30;12.43;;;7.60;;
60169;SDS011;46042;49.444;6.862;2022-11-15T06:13:56;11.73;;;6.95;;
60169;SDS011;46042;49.444;6.862;2022-11-15T06:16:23;17.80;;;7.50;;
60169;SDS011;46042;49.444;6.862;2022-11-15T06:18:49;18.17;;;8.65;;
60169;SDS011;46042;49.444;6.862;2022-11-15T06:21:16;27.20;;;11.05;;
60169;SDS011;46042;49.444;6.862;2022-11-15T06:23:43;20.25;;;10.02;;
60169;SDS011;46042;49.444;6.862;2022-11-15T06:26:09;21.92;;;10.32;;
60169;SDS011;46042;49.444;6.862;2022-11-15T06:28:36;27.15;;;12.45;;
60169;SDS011;46042;49.444;6.862;2022-11-15T06:31:03;51.72;;;18.15;;
60169;SDS011;46042;49.444;6.862;2022-11-15T06:33:30;44.70;;;17.38;;
60169;SDS011;46042;49.444;6.862;2022-11-15T06:36:04;65.95;;;21.63;;
60169;SDS011;46042;49.444;6.862;2022-11-15T06:38:45;53.75;;;19.15;;
60169;SDS011;46042;49.444;6.862;2022-11-15T06:41:12;36.20;;;14.80;;
60169;SDS011;46042;49.444;6.862;2022-11-15T06:43:40;41.15;;;14.90;;
60169;SDS011;46042;49.444;6.862;2022-11-15T06:46:07;29.67;;;12.43;;
60169;SDS011;46042;49.444;6.862;2022-11-15T06:48:34;25.27;;;11.07;;
60169;SDS011;46042;49.444;6.862;2022-11-15T06:51:02;15.70;;;7.93;;
60169;SDS011;46042;49.444;6.862;2022-11-15T06:53:30;14.07;;;7.82;;
60169;SDS011;46042;49.444;6.862;2022-11-15T06:56:02;13.77;;;8.43;;
60169;SDS011;46042;49.444;6.862;2022-11-15T06:58:30;13.60;;;7.97;;
60169;SDS011;46042;49.444;6.862;2022-11-15T07:01:01;16.67;;;9.48;;
60169;SDS011;46042;49.444;6.862;2022-11-15T07:03:29;14.13;;;6.57;;
60169;SDS011;46042;49.444;6.862;2022-11-15T07:05:57;11.57;;;7.15;;
60169;SDS011;46042;49.444;6.862;2022-11-15T07:08:32;9.25;;;5.80;;
60169;SDS011;46042;49.444;6.862;2022-11-15T07:10:59;16.65;;;8.32;;
60169;SDS011;46042;49.444;6.862;2022-11-15T07:13:28;17.20;;;7.07;;
60169;SDS011;46042;49.444;6.862;2022-11-15T07:16:03;14.75;;;7.28;;
60169;SDS011;46042;49.444;6.862;2022-11-15T07:18:35;11.82;;;6.45;;
60169;SDS011;46042;49.444;6.862;2022-11-15T07:23:30;17.70;;;6.20;;
60169;SDS011;46042;49.444;6.862;2022-11-15T07:25:58;21.02;;;8.77;;
60169;SDS011;46042;49.444;6.862;2022-11-15T07:28:25;27.83;;;11.13;;
60169;SDS011;46042;49.444;6.862;2022-11-15T07:30:53;14.30;;;8.27;;
60169;SDS011;46042;49.444;6.862;2022-11-15T07:33:19;19.17;;;11.27;;
60169;SDS011;46042;49.444;6.862;2022-11-15T07:35:46;18.17;;;11.23;;
60169;SDS011;46042;49.444;6.862;2022-11-15T07:38:16;18.80;;;11.07;;
60169;SDS011;46042;49.444;6.862;2022-11-15T07:40:46;14.77;;;7.68;;
60169;SDS011;46042;49.444;6.862;2022-11-15T07:43:13;14.43;;;6.93;;
60169;SDS011;46042;49.444;6.862;2022-11-15T07:45:40;14.13;;;6.80;;
60169;SDS011;46042;49.444;6.862;2022-11-15T07:48:11;13.10;;;6.50;;
60169;SDS011;46042;49.444;6.862;2022-11-15T07:50:41;12.40;;;7.03;;
60169;SDS011;46042;49.444;6.862;2022-11-15T07:53:09;10.80;;;6.57;;
60169;SDS011;46042;49.444;6.862;2022-11-15T07:55:36;11.27;;;6.55;;
60169;SDS011;46042;49.444;6.862;2022-11-15T07:58:09;17.75;;;7.85;;
60169;SDS011;46042;49.444;6.862;2022-11-15T08:00:38;11.88;;;6.43;;
60169;SDS011;46042;49.444;6.862;2022-11-15T08:05:32;14.65;;;7.53;;
60169;SDS011;46042;49.444;6.862;2022-11-15T08:07:59;12.73;;;7.43;;
60169;SDS011;46042;49.444;6.862;2022-11-15T08:10:26;11.20;;;6.78;;
60169;SDS011;46042;49.444;6.862;2022-11-15T08:13:12;14.05;;;7.40;;
60169;SDS011;46042;49.444;6.862;2022-11-15T08:15:39;15.25;;;7.25;;
60169;SDS011;46042;49.444;6.862;2022-11-15T08:18:09;15.32;;;8.88;;
60169;SDS011;46042;49.444;6.862;2022-11-15T08:20:38;15.38;;;7.72;;
60169;SDS011;46042;49.444;6.862;2022-11-15T08:23:05;11.18;;;7.47;;
60169;SDS011;46042;49.444;6.862;2022-11-15T08:25:33;12.57;;;7.38;;
60169;SDS011;46042;49.444;6.862;2022-11-15T08:28:02;12.27;;;8.38;;
60169;SDS011;46042;49.444;6.862;2022-11-15T08:30:33;16.83;;;9.17;;
60169;SDS011;46042;49.444;6.862;2022-11-15T08:33:02;27.33;;;13.05;;
60169;SDS011;46042;49.444;6.862;2022-11-15T08:35:30;15.43;;;9.00;;
60169;SDS011;46042;49.444;6.862;2022-11-15T08:37:56;16.60;;;9.38;;
60169;SDS011;46042;49.444;6.862;2022-11-15T08:40:23;14.07;;;8.35;;
60169;SDS011;46042;49.444;6.862;2022-11-15T08:42:50;16.95;;;9.40;;
60169;SDS011;46042;49.444;6.862;2022-11-15T08:45:17;23.15;;;11.10;;
60169;SDS011;46042;49.444;6.862;2022-11-15T08:47:44;12.43;;;8.18;;
60169;SDS011;46042;49.444;6.862;2022-11-15T08:50:19;19.08;;;9.45;;
60169;SDS011;46042;49.444;6.862;2022-11-15T08:52:46;14.90;;;8.80;;
60169;SDS011;46042;49.444;6.862;2022-11-15T08:55:14;16.10;;;9.13;;
60169;SDS011;46042;49.444;6.862;2022-11-15T08:57:42;13.27;;;8.43;;
60169;SDS011;46042;49.444;6.862;2022-11-15T09:00:09;15.05;;;7.70;;
60169;SDS011;46042;49.444;6.862;2022-11-15T09:02:38;14.00;;;8.25;;
60169;SDS011;46042;49.444;6.862;2022-11-15T09:05:05;14.25;;;8.13;;
60169;SDS011;46042;49.444;6.862;2022-11-15T09:07:32;15.55;;;8.32;;
60169;SDS011;46042;49.444;6.862;2022-11-15T09:09:59;15.35;;;8.13;;
60169;SDS011;46042;49.444;6.862;2022-11-15T09:12:26;19.42;;;8.00;;
60169;SDS011;46042;49.444;6.862;2022-11-15T09:14:52;14.40;;;8.38;;
60169;SDS011;46042;49.444;6.862;2022-11-15T09:17:19;12.27;;;7.90;;
60169;SDS011;46042;49.444;6.862;2022-11-15T09:19:50;14.75;;;8.20;;
60169;SDS011;46042;49.444;6.862;2022-11-15T09:22:16;13.23;;;8.15;;
60169;SDS011;46042;49.444;6.862;2022-11-15T09:24:43;13.93;;;8.25;;
60169;SDS011;46042;49.444;6.862;2022-11-15T09:27:10;17.88;;;9.13;;
60169;SDS011;46042;49.444;6.862;2022-11-15T09:29:37;11.23;;;6.95;;
60169;SDS011;46042;49.444;6.862;2022-11-15T09:32:04;14.43;;;7.10;;
60169;SDS011;46042;49.444;6.862;2022-11-15T09:34:31;13.55;;;6.60;;
60169;SDS011;46042;49.444;6.862;2022-11-15T09:36:58;13.82;;;7.95;;
60169;SDS011;46042;49.444;6.862;2022-11-15T09:39:24;10.95;;;7.15;;
60169;SDS011;46042;49.444;6.862;2022-11-15T09:41:56;14.57;;;8.20;;
60169;SDS011;46042;49.444;6.862;2022-11-15T09:44:47;18.88;;;9.77;;
60169;SDS011;46042;49.444;6.862;2022-11-15T09:47:33;17.15;;;8.60;;
60169;SDS011;46042;49.444;6.862;2022-11-15T09:50:17;11.20;;;5.82;;
60169;SDS011;46042;49.444;6.862;2022-11-15T09:52:55;24.50;;;9.75;;
60169;SDS011;46042;49.444;6.862;2022-11-15T09:55:21;14.00;;;6.72;;
60169;SDS011;46042;49.444;6.862;2022-11-15T09:58:03;9.05;;;5.50;;
60169;SDS011;46042;49.444;6.862;2022-11-15T10:00:42;8.13;;;4.55;;
60169;SDS011;46042;49.444;6.862;2022-11-15T10:03:16;8.23;;;4.00;;
60169;SDS011;46042;49.444;6.862;2022-11-15T10:05:49;7.75;;;4.90;;
60169;SDS011;46042;49.444;6.862;2022-11-15T10:11:11;6.10;;;3.40;;
60169;SDS011;46042;49.444;6.862;2022-11-15T10:14:07;7.72;;;3.95;;
60169;SDS011;46042;49.444;6.862;2022-11-15T10:19:46;7.68;;;3.65;;
60169;SDS011;46042;49.444;6.862;2022-11-15T10:27:34;9.65;;;3.97;;
60169;SDS011;46042;49.444;6.862;2022-11-15T10:30:02;8.15;;;3.78;;
60169;SDS011;46042;49.444;6.862;2022-11-15T10:32:36;6.05;;;3.20;;
60169;SDS011;46042;49.444;6.862;2022-11-15T10:35:26;5.65;;;2.97;;
60169;SDS011;46042;49.444;6.862;2022-11-15T10:38:06;7.00;;;3.20;;
60169;SDS011;46042;49.444;6.862;2022-11-15T10:40:35;6.72;;;2.88;;
60169;SDS011;46042;49.444;6.862;2022-11-15T10:43:14;10.50;;;3.20;;
60169;SDS011;46042;49.444;6.862;2022-11-15T10:45:43;5.28;;;2.80;;
60169;SDS011;46042;49.444;6.862;2022-11-15T10:50:38;6.68;;;2.80;;
60169;SDS011;46042;49.444;6.862;2022-11-15T10:53:12;9.00;;;2.97;;
60169;SDS011;46042;49.444;6.862;2022-11-15T10:55:47;5.40;;;2.40;;
60169;SDS011;46042;49.444;6.862;2022-11-15T10:58:27;5.50;;;3.08;;
60169;SDS011;46042;49.444;6.862;2022-11-15T11:04:03;5.45;;;2.40;;
60169;SDS011;46042;49.444;6.862;2022-11-15T11:06:53;5.30;;;2.47;;
60169;SDS011;46042;49.444;6.862;2022-11-15T11:09:35;4.40;;;2.60;;
60169;SDS011;46042;49.444;6.862;2022-11-15T11:12:05;5.70;;;2.40;;
60169;SDS011;46042;49.444;6.862;2022-11-15T11:14:36;4.45;;;2.88;;
60169;SDS011;46042;49.444;6.862;2022-11-15T11:19:53;6.30;;;2.92;;
60169;SDS011;46042;49.444;6.862;2022-11-15T11:25:59;5.13;;;3.03;;
60169;SDS011;46042;49.444;6.862;2022-11-15T11:28:30;4.13;;;2.33;;
60169;SDS011;46042;49.444;6.862;2022-11-15T11:31:28;2.90;;;2.00;;
60169;SDS011;46042;49.444;6.862;2022-11-15T11:37:31;5.35;;;2.70;;
60169;SDS011;46042;49.444;6.862;2022-11-15T11:42:39;4.22;;;2.35;;
60169;SDS011;46042;49.444;6.862;2022-11-15T11:45:21;5.07;;;2.28;;
60169;SDS011;46042;49.444;6.862;2022-11-15T11:48:03;2.92;;;1.80;;
60169;SDS011;46042;49.444;6.862;2022-11-15T11:50:40;2.78;;;1.67;;
60169;SDS011;46042;49.444;6.862;2022-11-15T11:55:51;4.87;;;2.10;;
60169;SDS011;46042;49.444;6.862;2022-11-15T11:58:21;3.00;;;2.00;;
60169;SDS011;46042;49.444;6.862;2022-11-15T12:00:57;2.45;;;1.58;;
60169;SDS011;46042;49.444;6.862;2022-11-15T12:04:01;2.97;;;1.77;;
60169;SDS011;46042;49.444;6.862;2022-11-15T12:14:33;3.35;;;2.33;;
60169;SDS011;46042;49.444;6.862;2022-11-15T12:17:02;5.03;;;3.10;;
60169;SDS011;46042;49.444;6.862;2022-11-15T12:19:32;3.75;;;2.28;;
60169;SDS011;46042;49.444;6.862;2022-11-15T12:22:03;4.05;;;2.22;;
60169;SDS011;46042;49.444;6.862;2022-11-15T12:29:54;3.70;;;2.03;;
60169;SDS011;46042;49.444;6.862;2022-11-15T12:32:26;3.25;;;1.98;;
60169;SDS011;46042;49.444;6.862;2022-11-15T12:34:56;4.35;;;1.92;;
60169;SDS011;46042;49.444;6.862;2022-11-15T12:42:41;4.20;;;1.83;;
60169;SDS011;46042;49.444;6.862;2022-11-15T12:45:35;5.13;;;2.10;;
60169;SDS011;46042;49.444;6.862;2022-11-15T13:06:52;2.65;;;1.80;;
60169;SDS011;46042;49.444;6.862;2022-11-15T13:11:56;7.20;;;3.30;;
60169;SDS011;46042;49.444;6.862;2022-11-15T13:17:03;3.28;;;2.00;;
60169;SDS011;46042;49.444;6.862;2022-11-15T13:19:57;3.33;;;1.73;;
60169;SDS011;46042;49.444;6.862;2022-11-15T13:22:27;4.20;;;2.00;;
60169;SDS011;46042;49.444;6.862;2022-11-15T13:27:57;6.18;;;2.30;;
60169;SDS011;46042;49.444;6.862;2022-11-15T13:30:30;5.38;;;1.65;;
60169;SDS011;46042;49.444;6.862;2022-11-15T13:33:05;4.13;;;1.90;;
60169;SDS011;46042;49.444;6.862;2022-11-15T13:35:39;7.07;;;2.40;;
60169;SDS011;46042;49.444;6.862;2022-11-15T13:38:17;3.95;;;2.05;;
60169;SDS011;46042;49.444;6.862;2022-11-15T13:40:51;4.45;;;2.78;;
60169;SDS011;46042;49.444;6.862;2022-11-15T13:51:36;6.50;;;2.70;;
60169;SDS011;46042;49.444;6.862;2022-11-15T13:56:40;6.05;;;2.55;;
60169;SDS011;46042;49.444;6.862;2022-11-15T13:59:14;7.90;;;5.15;;
60169;SDS011;46042;49.444;6.862;2022-11-15T14:01:45;8.35;;;5.32;;
60169;SDS011;46042;49.444;6.862;2022-11-15T14:04:13;5.00;;;3.22;;
60169;SDS011;46042;49.444;6.862;2022-11-15T14:06:45;7.07;;;3.60;;
60169;SDS011;46042;49.444;6.862;2022-11-15T14:11:59;4.95;;;3.33;;
60169;SDS011;46042;49.444;6.862;2022-11-15T14:14:27;4.55;;;2.83;;
60169;SDS011;46042;49.444;6.862;2022-11-15T14:16:56;4.78;;;3.08;;
60169;SDS011;46042;49.444;6.862;2022-11-15T14:27:42;5.35;;;2.28;;
60169;SDS011;46042;49.444;6.862;2022-11-15T14:30:14;3.47;;;2.28;;
60169;SDS011;46042;49.444;6.862;2022-11-15T14:32:46;2.78;;;2.10;;
60169;SDS011;46042;49.444;6.862;2022-11-15T14:35:21;5.57;;;2.40;;
60169;SDS011;46042;49.444;6.862;2022-11-15T14:37:49;2.47;;;1.80;;
60169;SDS011;46042;49.444;6.862;2022-11-15T14:40:17;2.72;;;2.08;;
60169;SDS011;46042;49.444;6.862;2022-11-15T14:42:46;3.55;;;2.33;;
60169;SDS011;46042;49.444;6.862;2022-11-15T14:45:15;5.60;;;2.50;;
60169;SDS011;46042;49.444;6.862;2022-11-15T14:47:46;7.90;;;2.30;;
60169;SDS011;46042;49.444;6.862;2022-11-15T14:50:13;5.60;;;2.85;;
60169;SDS011;46042;49.444;6.862;2022-11-15T14:52:42;3.58;;;2.13;;
60169;SDS011;46042;49.444;6.862;2022-11-15T14:55:11;4.18;;;2.55;;
60169;SDS011;46042;49.444;6.862;2022-11-15T14:57:47;5.78;;;1.90;;
60169;SDS011;46042;49.444;6.862;2022-11-15T15:00:14;3.80;;;2.25;;
60169;SDS011;46042;49.444;6.862;2022-11-15T15:02:42;3.53;;;2.58;;
60169;SDS011;46042;49.444;6.862;2022-11-15T15:05:12;5.68;;;2.83;;
60169;SDS011;46042;49.444;6.862;2022-11-15T15:07:44;6.03;;;3.53;;
60169;SDS011;46042;49.444;6.862;2022-11-15T15:10:11;7.57;;;3.45;;
60169;SDS011;46042;49.444;6.862;2022-11-15T15:12:59;8.20;;;3.20;;
60169;SDS011;46042;49.444;6.862;2022-11-15T15:15:28;4.00;;;2.40;;
60169;SDS011;46042;49.444;6.862;2022-11-15T15:17:58;6.85;;;2.75;;
60169;SDS011;46042;49.444;6.862;2022-11-15T15:20:25;3.97;;;2.08;;
60169;SDS011;46042;49.444;6.862;2022-11-15T15:22:51;7.25;;;2.90;;
60169;SDS011;46042;49.444;6.862;2022-11-15T15:25:23;4.95;;;2.15;;
60169;SDS011;46042;49.444;6.862;2022-11-15T15:27:54;4.78;;;2.25;;
60169;SDS011;46042;49.444;6.862;2022-11-15T15:30:22;8.27;;;2.28;;
60169;SDS011;46042;49.444;6.862;2022-11-15T15:32:49;4.30;;;2.58;;
60169;SDS011;46042;49.444;6.862;2022-11-15T15:35:16;85.07;;;38.92;;
60169;SDS011;46042;49.444;6.862;2022-11-15T15:37:44;11.20;;;5.55;;
60169;SDS011;46042;49.444;6.862;2022-11-15T15:40:14;6.15;;;4.05;;
60169;SDS011;46042;49.444;6.862;2022-11-15T15:42:43;10.30;;;7.10;;
60169;SDS011;46042;49.444;6.862;2022-11-15T15:45:10;4.65;;;3.38;;
60169;SDS011;46042;49.444;6.862;2022-11-15T15:47:37;5.18;;;3.20;;
60169;SDS011;46042;49.444;6.862;2022-11-15T15:50:26;7.00;;;3.05;;
60169;SDS011;46042;49.444;6.862;2022-11-15T15:52:56;4.93;;;3.78;;
60169;SDS011;46042;49.444;6.862;2022-11-15T15:55:25;5.25;;;3.55;;
60169;SDS011;46042;49.444;6.862;2022-11-15T15:57:52;11.13;;;6.75;;
60169;SDS011;46042;49.444;6.862;2022-11-15T16:00:19;6.72;;;4.43;;
60169;SDS011;46042;49.444;6.862;2022-11-15T16:02:48;3.92;;;2.50;;
60169;SDS011;46042;49.444;6.862;2022-11-15T16:05:14;9.88;;;5.05;;
60169;SDS011;46042;49.444;6.862;2022-11-15T16:07:41;20.00;;;9.13;;
60169;SDS011;46042;49.444;6.862;2022-11-15T16:10:21;16.15;;;7.63;;
60169;SDS011;46042;49.444;6.862;2022-11-15T16:12:48;19.02;;;10.15;;
60169;SDS011;46042;49.444;6.862;2022-11-15T16:15:15;12.95;;;8.57;;
60169;SDS011;46042;49.444;6.862;2022-11-15T16:17:44;11.02;;;6.10;;
60169;SDS011;46042;49.444;6.862;2022-11-15T16:20:32;12.18;;;5.57;;
60169;SDS011;46042;49.444;6.862;2022-11-15T16:23:02;11.50;;;5.80;;
60169;SDS011;46042;49.444;6.862;2022-11-15T16:25:56;9.02;;;5.35;;
60169;SDS011;46042;49.444;6.862;2022-11-15T16:28:24;9.65;;;5.80;;
60169;SDS011;46042;49.444;6.862;2022-11-15T16:31:05;14.05;;;6.28;;
60169;SDS011;46042;49.444;6.862;2022-11-15T16:33:35;9.38;;;5.35;;
60169;SDS011;46042;49.444;6.862;2022-11-15T16:36:03;11.57;;;5.45;;
60169;SDS011;46042;49.444;6.862;2022-11-15T16:38:31;10.05;;;4.97;;
60169;SDS011;46042;49.444;6.862;2022-11-15T16:40:58;7.45;;;4.25;;
60169;SDS011;46042;49.444;6.862;2022-11-15T16:43:25;32.92;;;17.10;;
60169;SDS011;46042;49.444;6.862;2022-11-15T16:45:51;22.13;;;11.32;;
60169;SDS011;46042;49.444;6.862;2022-11-15T16:48:20;30.15;;;14.95;;
60169;SDS011;46042;49.444;6.862;2022-11-15T16:50:54;11.57;;;6.47;;
60169;SDS011;46042;49.444;6.862;2022-11-15T16:53:22;36.35;;;13.63;;
60169;SDS011;46042;49.444;6.862;2022-11-15T16:55:49;35.17;;;13.07;;
60169;SDS011;46042;49.444;6.862;2022-11-15T16:58:15;8.73;;;4.60;;
60169;SDS011;46042;49.444;6.862;2022-11-15T17:00:42;7.47;;;4.20;;
60169;SDS011;46042;49.444;6.862;2022-11-15T17:03:09;10.20;;;4.60;;
60169;SDS011;46042;49.444;6.862;2022-11-15T17:05:35;9.98;;;3.80;;
60169;SDS011;46042;49.444;6.862;2022-11-15T17:08:02;7.72;;;4.55;;
60169;SDS011;46042;49.444;6.862;2022-11-15T17:10:29;7.18;;;3.85;;
60169;SDS011;46042;49.444;6.862;2022-11-15T17:12:55;7.80;;;3.92;;
60169;SDS011;46042;49.444;6.862;2022-11-15T17:15:22;5.90;;;3.40;;
60169;SDS011;46042;49.444;6.862;2022-11-15T17:17:50;6.50;;;4.13;;
60169;SDS011;46042;49.444;6.862;2022-11-15T17:20:18;5.53;;;3.20;;